Time;durP1;ratioP1;P1;durP2;ratioP2;P2;SDS_P1;SDS_P2;PMS_P1;PMS_P2;Temp;Humidity;BMP_temperature;BMP_pressure;BME280_temperature;BME280_humidity;BME280_pressure;Samples;Min_cycle;Max_cycle;Signal;HPM_P1;HPM_P2
2022/07/01 00:01:41;;;;;;;5.00;1.50;;;;;;;16.03;100.00;100577.09;5110543;28;20097;-87
2022/07/01 00:04:09;;;;;;;6.10;1.80;;;;;;;15.74;100.00;100533.97;5097172;28;20602;-87
2022/07/01 00:06:36;;;;;;;3.38;1.17;;;;;;;16.25;100.00;100562.50;5115031;28;20052;-86
2022/07/01 00:09:04;;;;;;;3.97;1.33;;;;;;;16.27;100.00;100560.59;5096292;28;20093;-87
2022/07/01 00:11:31;;;;;;;3.60;1.30;;;;;;;16.32;100.00;100561.16;5081907;28;20694;-87
2022/07/01 00:13:58;;;;;;;4.28;1.23;;;;;;;16.32;100.00;100571.72;5084670;28;20078;-87
2022/07/01 00:16:25;;;;;;;4.68;1.20;;;;;;;16.02;100.00;100522.56;5080171;28;20039;-88
2022/07/01 00:18:52;;;;;;;6.72;1.45;;;;;;;15.79;100.00;100536.38;5096820;28;20070;-87
2022/07/01 00:21:19;;;;;;;4.40;1.55;;;;;;;16.02;100.00;100561.34;5114199;28;20040;-87
2022/07/01 00:23:46;;;;;;;4.40;1.40;;;;;;;15.87;100.00;100529.66;5106623;28;20520;-87
2022/07/01 00:26:12;;;;;;;4.30;1.20;;;;;;;15.88;100.00;100538.44;5090755;28;20083;-87
2022/07/01 00:28:39;;;;;;;2.97;1.10;;;;;;;16.01;100.00;100542.00;5096750;28;20470;-87
2022/07/01 00:31:06;;;;;;;7.03;1.52;;;;;;;16.25;100.00;100550.13;5113973;28;20051;-87
2022/07/01 00:33:33;;;;;;;4.85;1.20;;;;;;;16.21;100.00;100561.00;5100100;28;20097;-87
2022/07/01 00:36:00;;;;;;;3.78;1.27;;;;;;;16.02;100.00;100538.41;5096438;28;20099;-87
2022/07/01 00:38:26;;;;;;;3.50;1.30;;;;;;;16.05;100.00;100535.56;5111425;28;20070;-87
2022/07/01 00:40:54;;;;;;;3.72;1.20;;;;;;;16.19;100.00;100566.41;5093404;28;20056;-87
2022/07/01 00:43:25;;;;;;;1.73;1.05;;;;;;;16.19;100.00;100566.41;5112084;28;20139;-87
2022/07/01 00:46:12;;;;;;;4.05;1.30;;;;;;;16.14;100.00;100571.97;5114574;28;20048;-88
2022/07/01 00:48:40;;;;;;;3.55;1.20;;;;;;;16.07;100.00;100569.81;5096223;28;20043;-87
2022/07/01 00:51:07;;;;;;;1.92;1.10;;;;;;;16.01;100.00;100578.13;5094790;28;20044;-87
2022/07/01 00:53:35;;;;;;;2.60;1.10;;;;;;;16.00;100.00;100555.31;5101423;28;20490;-87
2022/07/01 00:56:02;;;;;;;4.47;1.30;;;;;;;16.07;100.00;100570.66;5109187;28;20044;-87
2022/07/01 00:58:29;;;;;;;3.88;1.27;;;;;;;15.80;100.00;100551.28;5089921;28;20143;-87
2022/07/01 01:00:58;;;;;;;3.10;1.25;;;;;;;15.75;100.00;100557.69;5099939;28;20799;-87
2022/07/01 01:03:26;;;;;;;3.08;1.30;;;;;;;15.71;100.00;100568.50;5096205;28;20079;-87
2022/07/01 01:05:56;;;;;;;2.70;1.10;;;;;;;15.85;100.00;100578.25;5113538;28;20058;-87
2022/07/01 01:08:25;;;;;;;5.72;1.40;;;;;;;15.93;100.00;100587.34;5105458;28;20048;-87
2022/07/01 01:10:54;;;;;;;4.03;1.50;;;;;;;15.83;100.00;100562.50;5075326;28;20044;-87
2022/07/01 01:13:21;;;;;;;3.13;1.40;;;;;;;15.83;100.00;100574.81;5113059;28;20067;-87
2022/07/01 01:15:47;;;;;;;3.70;1.30;;;;;;;15.60;100.00;100552.47;5095276;28;20050;-87
2022/07/01 01:18:15;;;;;;;4.55;1.70;;;;;;;15.77;100.00;100559.38;5098826;28;20039;-87
2022/07/01 01:20:41;;;;;;;3.97;1.23;;;;;;;15.86;100.00;100572.00;5114132;28;20044;-87
2022/07/01 01:23:08;;;;;;;3.13;1.25;;;;;;;15.85;100.00;100579.09;5094801;28;20073;-87
2022/07/01 01:25:35;;;;;;;3.90;1.52;;;;;;;15.60;100.00;100570.94;5095755;28;20043;-87
2022/07/01 01:28:03;;;;;;;5.55;1.50;;;;;;;15.41;100.00;100569.44;5113905;28;20044;-88
2022/07/01 01:30:29;;;;;;;4.38;1.30;;;;;;;15.40;100.00;100580.91;5113774;28;20404;-87
2022/07/01 01:32:56;;;;;;;4.40;1.52;;;;;;;15.72;100.00;100583.38;5094521;28;20055;-88
2022/07/01 01:35:23;;;;;;;2.97;1.20;;;;;;;15.68;100.00;100580.09;5095340;28;20056;-87
2022/07/01 01:37:51;;;;;;;4.38;1.33;;;;;;;15.62;100.00;100532.13;5095617;28;20051;-88
2022/07/01 01:40:18;;;;;;;5.40;1.88;;;;;;;15.80;100.00;100591.72;5095165;28;20421;-88
2022/07/01 01:42:46;;;;;;;6.40;1.65;;;;;;;15.48;100.00;100557.56;5094229;28;20048;-88
2022/07/01 01:45:13;;;;;;;5.68;1.50;;;;;;;15.39;100.00;100537.03;5094639;28;20138;-88
2022/07/01 01:47:40;;;;;;;2.55;1.20;;;;;;;15.68;100.00;100569.53;5085215;28;20056;-87
2022/07/01 01:50:09;;;;;;;6.45;1.67;;;;;;;15.67;100.00;100569.63;5089068;28;20179;-87
2022/07/01 01:52:38;;;;;;;7.10;1.52;;;;;;;15.40;100.00;100540.50;5093004;28;20400;-88
2022/07/01 01:55:06;;;;;;;3.05;1.35;;;;;;;15.29;100.00;100539.34;5112696;28;20055;-88
2022/07/01 01:57:32;;;;;;;4.28;1.50;;;;;;;15.46;100.00;100564.72;5098620;28;20060;-88
2022/07/01 01:59:59;;;;;;;4.18;1.33;;;;;;;15.37;100.00;100538.91;5080793;28;20127;-87
2022/07/01 02:02:26;;;;;;;3.78;1.40;;;;;;;15.59;100.00;100534.94;5105275;28;20051;-87
2022/07/01 02:04:53;;;;;;;4.90;1.45;;;;;;;15.28;100.00;100511.31;5105329;28;20058;-88
2022/07/01 02:07:20;;;;;;;2.20;1.17;;;;;;;15.62;100.00;100563.81;5098282;28;20481;-87
2022/07/01 02:09:46;;;;;;;3.67;1.27;;;;;;;15.53;100.00;100492.16;5094165;28;20054;-88
2022/07/01 02:12:13;;;;;;;7.25;1.30;;;;;;;15.81;100.00;100542.41;5094020;28;20409;-87
2022/07/01 02:14:40;;;;;;;5.45;1.70;;;;;;;15.82;100.00;100536.19;5112818;28;20540;-87
2022/07/01 02:17:08;;;;;;;4.30;1.38;;;;;;;15.69;100.00;100514.97;5093180;28;20554;-87
2022/07/01 02:19:34;;;;;;;3.75;1.50;;;;;;;15.55;100.00;100502.63;5099789;28;20044;-88
2022/07/01 02:22:01;;;;;;;3.88;1.50;;;;;;;15.75;100.00;100535.72;5093743;28;20079;-87
2022/07/01 02:24:28;;;;;;;5.15;1.38;;;;;;;15.60;100.00;100490.00;5094518;28;20047;-86
2022/07/01 02:26:55;;;;;;;4.40;1.27;;;;;;;15.69;100.00;100523.72;5095008;28;20062;-87
2022/07/01 02:29:22;;;;;;;3.95;1.33;;;;;;;15.54;100.00;100522.03;5095039;28;20040;-87
2022/07/01 02:31:48;;;;;;;4.07;1.75;;;;;;;15.47;100.00;100541.81;5093029;28;20498;-87
2022/07/01 02:34:15;;;;;;;5.00;1.52;;;;;;;15.64;100.00;100554.84;5080063;28;20484;-87
2022/07/01 02:36:42;;;;;;;3.75;1.10;;;;;;;15.58;100.00;100549.91;5094888;28;20108;-87
2022/07/01 02:39:09;;;;;;;4.32;1.27;;;;;;;15.25;100.00;100527.31;5080407;28;20576;-86
2022/07/01 02:42:22;;;;;;;5.32;1.50;;;;;;;15.26;100.00;100515.78;5093862;28;20048;-86
2022/07/01 02:44:22;;;;;;;4.70;1.45;;;;;;;15.60;100.00;100565.66;5097639;28;20052;-87
2022/07/01 02:46:49;;;;;;;5.32;1.38;;;;;;;15.63;100.00;100571.59;5094698;28;20047;-87
2022/07/01 02:49:16;;;;;;;5.25;1.50;;;;;;;15.59;100.00;100527.88;5112807;28;20047;-87
2022/07/01 02:51:43;;;;;;;3.15;1.27;;;;;;;15.76;100.00;100534.78;5080343;28;20096;-87
2022/07/01 02:54:09;;;;;;;5.80;1.90;;;;;;;15.81;100.00;100535.34;5112300;28;20057;-86
2022/07/01 02:56:36;;;;;;;2.83;1.02;;;;;;;16.07;100.00;100554.81;5098058;28;20044;-86
2022/07/01 02:59:03;;;;;;;4.07;1.30;;;;;;;15.86;100.00;100535.03;5084402;28;20040;-87
2022/07/01 03:01:30;;;;;;;2.67;1.10;;;;;;;16.01;100.00;100536.72;5088654;28;20043;-87
2022/07/01 03:03:57;;;;;;;3.80;1.30;;;;;;;15.89;100.00;100513.75;5112533;28;20043;-87
2022/07/01 03:06:24;;;;;;;5.78;1.40;;;;;;;15.96;100.00;100537.97;5094437;28;20439;-87
2022/07/01 03:08:50;;;;;;;2.58;1.20;;;;;;;15.85;100.00;100536.84;5087806;28;20132;-87
2022/07/01 03:11:17;;;;;;;3.20;1.20;;;;;;;15.82;100.00;100546.75;5085187;28;20070;-87
2022/07/01 03:13:44;;;;;;;2.35;1.00;;;;;;;15.85;100.00;100536.84;5094480;28;20043;-87
2022/07/01 03:16:11;;;;;;;4.03;1.20;;;;;;;15.93;100.00;100557.47;5094229;28;20039;-87
2022/07/01 03:18:38;;;;;;;1.55;0.90;;;;;;;15.65;100.00;100493.19;5093752;28;20044;-87
2022/07/01 03:21:04;;;;;;;1.85;1.00;;;;;;;16.02;100.00;100546.31;5086953;28;20052;-87
2022/07/01 03:23:31;;;;;;;1.95;1.10;;;;;;;15.92;100.00;100521.47;5095721;28;20052;-86
2022/07/01 03:25:58;;;;;;;2.15;1.00;;;;;;;15.91;100.00;100502.13;5098080;28;20122;-87
2022/07/01 03:28:25;;;;;;;2.00;0.93;;;;;;;15.86;100.00;100512.13;5085123;28;20040;-87
2022/07/01 03:30:52;;;;;;;2.65;1.20;;;;;;;16.10;100.00;100546.69;5114524;28;20047;-87
2022/07/01 03:33:19;;;;;;;3.90;1.40;;;;;;;16.13;100.00;100551.78;5114614;28;20052;-87
2022/07/01 03:35:46;;;;;;;4.32;1.55;;;;;;;15.74;100.00;100504.94;5097842;28;20049;-87
2022/07/01 03:38:13;;;;;;;4.03;1.20;;;;;;;15.97;100.00;100539.66;5105703;28;20428;-87
2022/07/01 03:40:39;;;;;;;4.20;1.30;;;;;;;15.66;100.00;100494.88;5091026;28;20051;-87
2022/07/01 03:43:06;;;;;;;2.63;1.10;;;;;;;15.73;100.00;100512.03;5094898;28;20130;-87
2022/07/01 03:45:33;;;;;;;2.92;1.10;;;;;;;15.83;100.00;100535.22;5101977;28;20409;-87
2022/07/01 03:48:00;;;;;;;2.22;1.10;;;;;;;15.97;100.00;100529.94;5097392;28;20054;-87
2022/07/01 03:50:27;;;;;;;3.45;1.35;;;;;;;16.03;100.00;100545.38;5097507;28;20051;-87
2022/07/01 03:55:40;;;;;;;3.65;1.25;;;;;;;15.99;100.00;100556.22;5115228;28;20442;-87
2022/07/01 03:58:06;;;;;;;3.03;1.02;;;;;;;15.80;100.00;100522.25;5095727;28;20059;-88
2022/07/01 04:00:35;;;;;;;3.65;1.20;;;;;;;15.84;100.00;100526.38;5102129;28;20492;-88
2022/07/01 04:03:03;;;;;;;4.18;1.10;;;;;;;15.86;100.00;100511.28;5100717;28;20468;-88
2022/07/01 04:05:34;;;;;;;4.03;1.42;;;;;;;16.13;100.00;100554.44;5100965;28;20055;-87
2022/07/01 04:08:06;;;;;;;4.15;1.20;;;;;;;15.99;100.00;100549.19;5096460;28;20059;-87
2022/07/01 04:10:33;;;;;;;6.30;1.50;;;;;;;16.05;100.00;100571.72;5097143;28;20055;-88
2022/07/01 04:13:01;;;;;;;4.28;1.40;;;;;;;16.08;100.00;100558.31;5095861;28;20052;-87
2022/07/01 04:15:48;;;;;;;5.15;1.50;;;;;;;16.01;100.00;100525.31;5099353;28;20051;-88
2022/07/01 04:18:15;;;;;;;2.80;1.10;;;;;;;16.09;100.00;100536.22;5096663;28;20553;-88
2022/07/01 04:20:42;;;;;;;5.50;1.80;;;;;;;16.07;100.00;100553.97;5091730;28;20047;-88
2022/07/01 04:23:09;;;;;;;9.02;1.90;;;;;;;16.05;100.00;100561.97;5092860;28;20130;-87
2022/07/01 04:25:35;;;;;;;7.70;1.88;;;;;;;15.86;100.00;100542.97;5114111;28;20048;-88
2022/07/01 04:28:03;;;;;;;3.95;1.70;;;;;;;15.94;100.00;100560.03;5096005;28;20052;-87
2022/07/01 04:30:30;;;;;;;6.57;1.88;;;;;;;15.81;100.00;100559.09;5097474;28;20048;-87
2022/07/01 04:32:57;;;;;;;4.80;1.88;;;;;;;15.91;100.00;100567.28;5091597;28;20051;-87
2022/07/01 04:35:24;;;;;;;6.07;1.95;;;;;;;15.78;100.00;100546.09;5099772;28;20468;-86
2022/07/01 04:37:51;;;;;;;4.45;1.48;;;;;;;16.06;100.00;100576.91;5106426;28;20080;-88
2022/07/01 04:40:18;;;;;;;4.65;1.55;;;;;;;15.69;100.00;100544.84;5075061;28;20047;-88
2022/07/01 04:42:44;;;;;;;4.50;1.60;;;;;;;15.71;100.00;100565.88;5089254;28;20184;-87
2022/07/01 04:45:11;;;;;;;3.50;1.48;;;;;;;15.78;100.00;100574.28;5084351;28;20047;-87
2022/07/01 04:47:39;;;;;;;6.65;2.25;;;;;;;15.78;100.00;100579.56;5110316;28;20054;-87
2022/07/01 04:50:06;;;;;;;5.28;1.50;;;;;;;15.91;100.00;100583.13;5095501;28;20044;-87
2022/07/01 04:52:32;;;;;;;3.33;1.42;;;;;;;15.75;100.00;100559.47;5094111;28;20160;-87
2022/07/01 04:54:59;;;;;;;5.65;1.80;;;;;;;15.77;100.00;100585.78;5096750;28;20044;-85
2022/07/01 04:57:26;;;;;;;4.40;1.58;;;;;;;15.65;100.00;100535.44;5088718;28;20055;-85
2022/07/01 04:59:53;;;;;;;6.70;2.28;;;;;;;15.55;100.00;100544.84;5118038;28;20103;-86
2022/07/01 05:02:19;;;;;;;3.97;1.45;;;;;;;15.67;100.00;100590.72;5108938;28;20062;-85
2022/07/01 05:04:46;;;;;;;3.45;1.30;;;;;;;15.76;100.00;100611.34;5110719;28;20047;-84
2022/07/01 05:07:28;;;;;;;5.07;2.03;;;;;;;15.45;100.00;100580.66;5090072;28;20047;-84
2022/07/01 05:09:56;;;;;;;5.93;2.15;;;;;;;15.87;100.00;100610.69;5097021;28;20126;-84
2022/07/01 05:12:23;;;;;;;3.70;1.63;;;;;;;15.60;100.00;100570.94;5107678;28;20052;-84
2022/07/01 05:14:49;;;;;;;7.97;2.28;;;;;;;15.07;100.00;100550.34;5076774;28;20474;-84
2022/07/01 05:17:16;;;;;;;6.05;1.90;;;;;;;15.44;100.00;100610.59;5095219;28;20056;-84
2022/07/01 05:22:28;;;;;;;8.57;3.05;;;;;;;15.03;100.00;100584.88;5105684;28;20047;-84
2022/07/01 05:24:55;;;;;;;8.73;2.47;;;;;;;14.89;100.00;100602.38;5114708;28;20127;-85
2022/07/01 05:27:24;;;;;;;8.68;2.83;;;;;;;14.85;100.00;100582.38;5077674;28;20079;-84
2022/07/01 05:29:52;;;;;;;8.27;2.20;;;;;;;14.91;100.00;100554.81;5104290;28;20398;-84
2022/07/01 05:32:19;;;;;;;8.95;3.08;;;;;;;14.93;100.00;100534.50;5095143;28;20050;-84
2022/07/01 05:34:46;;;;;;;8.65;2.60;;;;;;;15.04;100.00;100576.91;5113986;28;20545;-84
2022/07/01 05:37:13;;;;;;;8.05;2.22;;;;;;;14.93;100.00;100561.72;5096227;28;20051;-84
2022/07/01 05:39:39;;;;;;;8.95;2.75;;;;;;;14.95;100.00;100580.06;5115060;28;20050;-84
2022/07/01 05:42:14;;;;;;;9.23;2.15;;;;;;;14.83;100.00;100544.72;5093100;28;20048;-84
2022/07/01 05:44:41;;;;;;;11.63;2.97;;;;;;;15.33;100.00;100604.19;5081943;28;20040;-84
2022/07/01 05:47:09;;;;;;;14.63;3.50;;;;;;;15.03;100.00;100590.16;5114619;28;20055;-83
2022/07/01 05:49:36;;;;;;;9.85;2.42;;;;;;;14.94;100.00;100552.00;5096110;28;20044;-84
2022/07/01 05:52:03;;;;;;;6.47;2.00;;;;;;;15.07;100.00;100573.22;5113171;28;20051;-83
2022/07/01 05:54:30;;;;;;;8.15;2.22;;;;;;;14.95;100.00;100583.56;5095846;28;20531;-84
2022/07/01 05:56:56;;;;;;;7.00;2.13;;;;;;;14.95;100.00;100588.81;5096945;28;20134;-84
2022/07/01 05:59:23;;;;;;;8.93;2.20;;;;;;;15.05;100.00;100607.63;5084990;28;20409;-84
2022/07/01 06:01:50;;;;;;;6.80;2.30;;;;;;;15.05;100.00;100554.88;5111279;28;20040;-84
2022/07/01 06:04:17;;;;;;;8.75;2.40;;;;;;;14.91;100.00;100545.13;5096035;28;20050;-84
2022/07/01 06:06:44;;;;;;;10.43;2.58;;;;;;;15.02;100.00;100596.41;5095933;28;20120;-83
2022/07/01 06:09:11;;;;;;;9.00;2.47;;;;;;;15.24;100.00;100623.19;5112221;28;20044;-83
2022/07/01 06:11:38;;;;;;;6.95;1.80;;;;;;;15.15;100.00;100610.53;5088594;28;20052;-83
2022/07/01 06:14:05;;;;;;;5.72;1.75;;;;;;;15.05;100.00;100599.69;5094953;28;20536;-83
2022/07/01 06:16:31;;;;;;;6.60;1.98;;;;;;;15.18;100.00;100605.94;5082592;28;20412;-84
2022/07/01 06:18:59;;;;;;;4.93;1.50;;;;;;;15.43;100.00;100633.50;5112732;28;20124;-84
2022/07/01 06:21:26;;;;;;;7.15;2.10;;;;;;;15.06;100.00;100622.47;5094787;28;20050;-85
2022/07/01 06:23:53;;;;;;;6.60;1.48;;;;;;;15.23;100.00;100608.31;5091770;28;20497;-84
2022/07/01 06:26:19;;;;;;;6.57;1.75;;;;;;;15.42;100.00;100586.94;5084727;28;20055;-84
2022/07/01 06:28:46;;;;;;;9.45;2.38;;;;;;;15.05;100.00;100581.25;5095398;28;20127;-84
2022/07/01 06:31:13;;;;;;;7.28;1.90;;;;;;;15.34;100.00;100611.16;5088925;28;20044;-84
2022/07/01 06:33:40;;;;;;;11.40;1.77;;;;;;;15.17;100.00;100590.19;5099262;28;20098;-83
2022/07/01 06:36:07;;;;;;;5.25;1.50;;;;;;;15.11;100.00;100556.28;5081018;28;20048;-83
2022/07/01 06:38:34;;;;;;;7.10;2.13;;;;;;;15.21;100.00;100586.47;5095456;28;20056;-84
2022/07/01 06:43:46;;;;;;;6.70;1.95;;;;;;;15.34;100.00;100561.03;5105746;28;20079;-84
2022/07/01 06:46:12;;;;;;;6.07;1.70;;;;;;;15.09;100.00;100545.00;5095309;28;20044;-83
2022/07/01 06:48:39;;;;;;;6.25;1.98;;;;;;;15.72;100.00;100601.84;5095563;28;20122;-83
2022/07/01 06:51:06;;;;;;;7.13;1.90;;;;;;;15.66;100.00;100597.81;5094009;28;20123;-84
2022/07/01 06:53:33;;;;;;;6.93;1.90;;;;;;;15.18;100.00;100545.28;5103180;28;20052;-84
2022/07/01 06:56:00;;;;;;;6.60;2.13;;;;;;;15.26;100.00;100559.78;5091408;28;20044;-84
2022/07/01 06:58:27;;;;;;;5.38;1.80;;;;;;;15.46;100.00;100545.41;5096885;28;20047;-82
2022/07/01 07:00:54;;;;;;;4.63;1.33;;;;;;;15.60;100.00;100566.53;5106657;28;20054;-84
2022/07/01 07:03:21;;;;;;;7.57;1.85;;;;;;;15.54;100.00;100565.09;5114084;28;20409;-84
2022/07/01 07:05:48;;;;;;;9.38;2.15;;;;;;;15.30;100.00;100561.31;5086444;28;20093;-85
2022/07/01 07:08:14;;;;;;;7.65;2.00;;;;;;;15.09;100.00;100530.00;5102525;28;20151;-85
2022/07/01 07:10:41;;;;;;;6.47;1.75;;;;;;;15.46;100.00;100522.50;5099512;28;20484;-85
2022/07/01 07:13:08;;;;;;;6.47;2.25;;;;;;;16.21;100.00;100546.00;5098227;28;20054;-85
2022/07/01 07:15:35;;;;;;;7.60;1.80;;;;;;;16.19;100.00;100541.78;5099998;28;20054;-86
2022/07/01 07:18:02;;;;;;;4.80;1.58;;;;;;;16.60;100.00;100549.66;5118535;28;20052;-86
2022/07/01 07:20:29;;;;;;;6.85;1.65;;;;;;;16.63;100.00;100560.03;5103708;28;20043;-85
2022/07/01 07:22:56;;;;;;;2.70;1.30;;;;;;;16.51;100.00;100548.44;5117193;28;20048;-85
2022/07/01 07:25:23;;;;;;;6.45;1.63;;;;;;;16.48;100.00;100543.38;5085797;28;20044;-86
2022/07/01 07:27:50;;;;;;;3.75;1.33;;;;;;;16.54;100.00;100565.91;5100561;28;20055;-86
2022/07/01 07:30:17;;;;;;;4.70;1.30;;;;;;;16.59;100.00;100561.19;5100561;28;20496;-86
2022/07/01 07:32:45;;;;;;;5.22;1.40;;;;;;;16.98;100.00;100593.91;5111475;28;20438;-86
2022/07/01 07:35:12;;;;;;;4.22;1.45;;;;;;;16.86;100.00;100607.94;5099821;28;20047;-86
2022/07/01 07:37:39;;;;;;;6.63;1.70;;;;;;;17.07;100.00;100603.84;5099623;28;20416;-86
2022/07/01 07:40:11;;;;;;;3.40;1.30;;;;;;;17.15;100.00;100550.41;5099152;28;20078;-86
2022/07/01 07:42:39;;;;;;;5.03;1.50;;;;;;;17.10;100.00;100580.78;5118653;28;20047;-86
2022/07/01 07:45:07;;;;;;;7.07;1.77;;;;;;;16.81;100.00;100541.25;5118639;28;20058;-86
2022/07/01 07:47:34;;;;;;;6.70;1.70;;;;;;;16.66;100.00;100551.91;5101477;28;20048;-85
2022/07/01 07:50:02;;;;;;;4.32;1.50;;;;;;;17.52;100.00;100602.63;5092610;28;20050;-87
2022/07/01 07:52:29;;;;;;;6.95;1.70;;;;;;;18.23;100.00;100555.31;5095308;28;20138;-87
2022/07/01 07:54:56;;;;;;;7.82;1.63;;;;;;;18.37;100.00;100581.63;5106091;28;20048;-87
2022/07/01 07:57:23;;;;;;;4.15;1.25;;;;;;;18.47;100.00;100581.81;5120328;28;20058;-87
2022/07/01 07:59:50;;;;;;;4.45;1.20;;;;;;;18.07;100.00;100564.34;5119873;28;20050;-86
2022/07/01 08:02:17;;;;;;;5.22;1.30;;;;;;;17.99;100.00;100580.81;5100621;28;20537;-86
2022/07/01 08:04:50;;;;;;;;;;;;;;;17.96;100.00;100604.00;5102311;28;20100;-86
2022/07/01 08:07:17;;;;;;;4.13;1.20;;;;;;;17.68;100.00;100610.38;5094872;28;19926;-87
2022/07/01 08:09:47;;;;;;;4.53;1.10;;;;;;;17.37;100.00;100547.16;5101775;28;20069;-85
2022/07/01 08:12:15;;;;;;;4.95;1.60;;;;;;;17.36;100.00;100563.16;5101851;28;20172;-86
2022/07/01 08:14:43;;;;;;;6.43;1.55;;;;;;;17.37;100.00;100568.34;5101933;28;20055;-87
2022/07/01 08:17:10;;;;;;;5.15;1.40;;;;;;;16.74;100.00;100577.81;5119546;28;20135;-87
2022/07/01 08:19:37;;;;;;;2.92;1.05;;;;;;;16.88;100.00;100561.91;5102085;28;20044;-87
2022/07/01 08:22:04;;;;;;;5.82;1.15;;;;;;;17.12;100.00;100574.44;5103202;28;20067;-87
2022/07/01 08:24:31;;;;;;;2.25;0.90;;;;;;;17.25;100.00;100588.53;5103165;28;20048;-87
2022/07/01 08:26:58;;;;;;;3.65;1.20;;;;;;;17.34;100.00;100567.69;5121356;28;20497;-86
2022/07/01 08:29:25;;;;;;;3.83;1.38;;;;;;;16.92;100.00;100575.78;5102361;28;20079;-87
2022/07/01 08:31:52;;;;;;;2.78;0.95;;;;;;;17.17;100.00;100555.59;5119916;28;20047;-87
2022/07/01 08:34:20;;;;;;;5.07;1.10;;;;;;;16.94;100.00;100570.38;5101804;28;20151;-87
2022/07/01 08:36:47;;;;;;;5.07;1.40;;;;;;;16.83;100.00;100549.91;5120191;28;20464;-87
2022/07/01 08:39:13;;;;;;;5.63;1.65;;;;;;;16.92;100.00;100572.28;5100302;28;20079;-87
2022/07/01 08:41:41;;;;;;;4.85;1.38;;;;;;;16.85;100.00;100533.03;5117759;28;20466;-87
2022/07/01 08:44:08;;;;;;;3.90;1.40;;;;;;;16.82;100.00;100527.94;5094926;28;20126;-87
2022/07/01 08:46:36;;;;;;;2.92;1.20;;;;;;;16.92;100.00;100538.75;5119430;28;20047;-87
2022/07/01 08:49:03;;;;;;;4.20;1.27;;;;;;;16.75;100.00;100545.16;5102469;28;20079;-88
2022/07/01 08:51:29;;;;;;;5.13;1.38;;;;;;;16.97;100.00;100573.69;5102459;28;20043;-87
2022/07/01 08:53:56;;;;;;;3.97;1.38;;;;;;;16.84;100.00;100576.31;5089944;28;20105;-87
2022/07/01 08:56:42;;;;;;;5.72;1.40;;;;;;;17.16;100.00;100596.25;5100264;28;20241;-88
2022/07/01 08:59:10;;;;;;;4.28;1.55;;;;;;;16.81;100.00;100536.81;5109000;28;20127;-87
2022/07/01 09:01:37;;;;;;;4.40;1.30;;;;;;;16.86;100.00;100565.63;5104671;28;20043;-87
2022/07/01 09:04:18;;;;;;;3.67;1.30;;;;;;;17.01;100.00;100585.72;5119521;28;20048;-88
2022/07/01 09:06:47;;;;;;;4.00;1.35;;;;;;;16.87;100.00;100546.16;5118605;28;20052;-87
2022/07/01 09:09:15;;;;;;;3.67;1.25;;;;;;;16.69;100.00;100550.84;5118653;28;20130;-87
2022/07/01 09:11:53;;;;;;;2.75;0.95;;;;;;;16.81;100.00;100571.16;5098732;28;20127;-87
2022/07/01 09:14:23;;;;;;;5.60;1.25;;;;;;;17.11;100.00;100563.97;5091280;28;20044;-88
2022/07/01 09:16:52;;;;;;;3.88;1.10;;;;;;;17.14;100.00;100510.84;5095741;28;20054;-88
2022/07/01 09:19:21;;;;;;;3.55;1.25;;;;;;;17.02;100.00;100518.69;5110129;28;20054;-88
2022/07/01 09:22:00;;;;;;;3.72;1.20;;;;;;;17.35;100.00;100564.94;5092508;28;20052;-87
2022/07/01 09:24:33;;;;;;;5.15;1.10;;;;;;;16.85;100.00;100516.31;5091139;28;20048;-87
2022/07/01 09:27:06;;;;;;;3.90;1.17;;;;;;;17.64;100.00;100576.16;5092903;28;20051;-87
2022/07/01 09:29:37;;;;;;;5.82;1.20;;;;;;;17.49;100.00;100576.38;5087365;28;20472;-88
2022/07/01 09:32:07;;;;;;;6.10;1.60;;;;;;;17.39;100.00;100577.00;5098342;28;20075;-88
2022/07/01 09:34:39;;;;;;;3.75;1.23;;;;;;;17.67;100.00;100561.00;5108844;28;20094;-87
2022/07/01 09:37:07;;;;;;;4.13;1.20;;;;;;;17.80;100.00;100536.19;5092766;28;20044;-86
2022/07/01 09:39:50;;;;;;;3.80;1.17;;;;;;;18.22;100.00;100570.38;5098393;28;20075;-88
2022/07/01 09:42:21;;;;;;;5.85;1.42;;;;;;;17.90;100.00;100578.81;5116041;28;20134;-87
2022/07/01 09:45:02;;;;;;;3.60;1.10;;;;;;;18.07;100.00;100518.47;5098058;28;20090;-88
2022/07/01 09:47:32;;;;;;;6.50;1.13;;;;;;;18.02;100.00;100532.03;5115525;28;20505;-88
2022/07/01 09:49:59;;;;;;;4.20;1.00;;;;;;;18.47;100.00;100557.94;5097492;28;20055;-88
2022/07/01 09:52:27;;;;;;;4.78;1.20;;;;;;;18.58;100.00;100535.00;5096754;28;20408;-88
2022/07/01 09:55:03;;;;;;;4.97;1.20;;;;;;;18.81;100.00;100552.81;5085896;28;20047;-88
2022/07/01 09:57:30;;;;;;;5.68;1.25;;;;;;;18.57;100.00;100525.38;5097003;28;20051;-88
2022/07/01 09:59:58;;;;;;;4.00;1.27;;;;;;;18.65;100.00;100490.31;5097010;28;20607;-87
2022/07/01 10:02:29;;;;;;;7.97;1.30;;;;;;;18.39;100.00;100490.44;5106691;28;20083;-88
2022/07/01 10:05:09;;;;;;;2.88;1.13;;;;;;;18.79;100.00;100511.31;5093647;28;20052;-86
2022/07/01 10:07:54;;;;;;;2.63;1.00;;;;;;;18.30;100.00;100511.50;5097837;28;20077;-88
2022/07/01 10:11:13;;;;;;;3.65;1.20;;;;;;;18.91;100.00;100552.03;5115527;28;20146;-88
2022/07/01 10:13:41;;;;;;;4.13;1.20;;;;;;;18.93;100.00;100523.56;5064479;28;20063;-87
2022/07/01 10:16:10;;;;;;;2.40;0.90;;;;;;;18.74;100.00;100502.03;5097744;28;20114;-88
2022/07/01 10:18:37;;;;;;;7.03;1.02;;;;;;;19.15;100.00;100512.16;5096020;28;20134;-88
2022/07/01 10:21:05;;;;;;;3.15;0.73;;;;;;;19.61;100.00;100522.81;5095151;28;20040;-88
2022/07/01 10:23:42;;;;;;;4.88;1.50;;;;;;;18.92;100.00;100521.03;5096833;28;20051;-88
2022/07/01 10:26:10;;;;;;;4.07;1.00;;;;;;;19.48;100.00;100521.13;5115885;28;20107;-88
2022/07/01 10:28:45;;;;;;;6.30;1.40;;;;;;;19.33;100.00;100547.03;5114819;28;20050;-88
2022/07/01 10:31:17;;;;;;;3.08;1.13;;;;;;;19.41;100.00;100540.31;5091383;28;20448;-88
2022/07/01 10:33:55;;;;;;;2.97;1.00;;;;;;;19.75;100.00;100530.56;5101474;28;20052;-86
2022/07/01 10:36:22;;;;;;;6.43;1.45;;;;;;;19.60;100.00;100548.53;5107133;28;20047;-88
2022/07/01 10:39:07;;;;;;;4.18;1.20;;;;;;;19.65;100.00;100538.34;5118807;28;20093;-88
2022/07/01 10:41:36;;;;;;;3.38;1.00;;;;;;;20.26;100.00;100539.78;5096232;28;20127;-88
2022/07/01 10:44:26;;;;;;;2.97;1.02;;;;;;;19.99;100.00;100545.50;5100787;28;20134;-88
2022/07/01 10:47:01;;;;;;;3.03;0.90;;;;;;;19.76;100.00;100492.41;5100699;28;20043;-88
2022/07/01 10:49:37;;;;;;;5.30;1.10;;;;;;;20.60;100.00;100545.81;5100117;28;20054;-88
2022/07/01 10:52:06;;;;;;;5.28;1.35;;;;;;;20.32;100.00;100514.50;5099991;28;20134;-88
2022/07/01 10:54:36;;;;;;;3.58;1.30;;;;;;;20.32;100.00;100533.94;5086813;28;20143;-89
2022/07/01 10:57:15;;;;;;;4.65;1.30;;;;;;;20.21;100.00;100539.31;5101222;28;20763;-88
2022/07/01 10:59:53;;;;;;;8.05;1.58;;;;;;;19.53;100.00;100497.69;5106898;28;20473;-88
2022/07/01 11:02:26;;;;;;;7.00;1.35;;;;;;;20.00;100.00;100534.75;5100492;28;20071;-88
2022/07/01 11:05:04;;;;;;;4.85;1.50;;;;;;;20.17;100.00;100532.53;5100028;28;20054;-88
2022/07/01 11:07:33;;;;;;;5.18;1.40;;;;;;;19.92;100.00;100502.66;5107194;28;20390;-89
2022/07/01 11:10:02;;;;;;;4.90;1.50;;;;;;;20.57;100.00;100492.84;5100015;28;20044;-89
2022/07/01 11:12:30;;;;;;;4.07;1.27;;;;;;;20.92;100.00;100523.66;5100649;28;20052;-88
2022/07/01 11:14:58;;;;;;;3.63;1.27;;;;;;;21.08;99.05;100493.94;5087293;28;20055;-89
2022/07/01 11:17:26;;;;;;;4.55;1.10;;;;;;;20.93;99.91;100540.47;5086282;28;20043;-88
2022/07/01 11:19:57;;;;;;;7.50;1.58;;;;;;;20.93;95.96;100533.34;5105943;28;20055;-87
2022/07/01 11:22:26;;;;;;;8.07;1.63;;;;;;;20.95;94.04;100528.75;5098904;28;20533;-88
2022/07/01 11:24:58;;;;;;;5.13;1.58;;;;;;;21.18;97.82;100513.47;5117899;28;20054;-89
2022/07/01 11:27:26;;;;;;;4.15;1.20;;;;;;;21.24;100.00;100520.09;5099378;28;20062;-86
2022/07/01 11:29:55;;;;;;;4.40;1.10;;;;;;;21.19;88.46;100496.50;5099456;28;20126;-89
2022/07/01 11:32:26;;;;;;;4.25;1.30;;;;;;;21.32;94.64;100546.91;5092829;28;20063;-88